sensor_id;sensor_type;location;lat;lon;timestamp;P1;P2;P0
49343;PMS5003;35210;41.606;-87.602;2022-10-26T00:01:22;38.20;35.00;20.80
49343;PMS5003;35210;41.606;-87.602;2022-10-26T00:03:50;36.20;32.20;21.20
49343;PMS5003;35210;41.606;-87.602;2022-10-26T00:06:23;31.00;30.40;22.00
49343;PMS5003;35210;41.606;-87.602;2022-10-26T00:08:53;32.80;27.80;16.20
49343;PMS5003;35210;41.606;-87.602;2022-10-26T00:11:23;34.80;32.00;19.40
49343;PMS5003;35210;41.606;-87.602;2022-10-26T00:13:56;36.40;32.00;21.20
49343;PMS5003;35210;41.606;-87.602;2022-10-26T00:16:26;36.60;33.20;21.80
49343;PMS5003;35210;41.606;-87.602;2022-10-26T00:18:55;33.40;30.60;20.20
49343;PMS5003;35210;41.606;-87.602;2022-10-26T00:21:24;19.80;18.80;11.60
49343;PMS5003;35210;41.606;-87.602;2022-10-26T00:23:52;11.20;10.80;6.40
49343;PMS5003;35210;41.606;-87.602;2022-10-26T00:26:21;7.40;7.40;5.20
49343;PMS5003;35210;41.606;-87.602;2022-10-26T00:28:53;6.60;6.60;5.40
49343;PMS5003;35210;41.606;-87.602;2022-10-26T00:31:22;7.40;7.40;5.40
49343;PMS5003;35210;41.606;-87.602;2022-10-26T00:33:51;7.20;7.20;5.40
49343;PMS5003;35210;41.606;-87.602;2022-10-26T00:36:21;10.80;10.60;7.00
49343;PMS5003;35210;41.606;-87.602;2022-10-26T00:38:52;5.00;5.00;4.00
49343;PMS5003;35210;41.606;-87.602;2022-10-26T00:41:22;4.80;4.80;3.00
49343;PMS5003;35210;41.606;-87.602;2022-10-26T00:43:54;0.00;0.00;0.00
49343;PMS5003;35210;41.606;-87.602;2022-10-26T00:46:24;0.80;0.80;0.80
49343;PMS5003;35210;41.606;-87.602;2022-10-26T00:48:56;3.20;2.60;1.80
49343;PMS5003;35210;41.606;-87.602;2022-10-26T00:51:28;1.40;1.40;1.00
49343;PMS5003;35210;41.606;-87.602;2022-10-26T00:53:58;1.40;1.40;1.00
49343;PMS5003;35210;41.606;-87.602;2022-10-26T00:56:29;1.00;1.00;1.00
49343;PMS5003;35210;41.606;-87.602;2022-10-26T00:59:02;1.00;1.00;1.00
49343;PMS5003;35210;41.606;-87.602;2022-10-26T01:01:33;0.80;0.80;0.00
49343;PMS5003;35210;41.606;-87.602;2022-10-26T01:04:05;1.00;1.00;0.00
49343;PMS5003;35210;41.606;-87.602;2022-10-26T01:06:33;0.80;0.80;0.40
49343;PMS5003;35210;41.606;-87.602;2022-10-26T01:09:04;0.00;0.00;0.00
49343;PMS5003;35210;41.606;-87.602;2022-10-26T01:11:33;2.00;0.60;0.00
49343;PMS5003;35210;41.606;-87.602;2022-10-26T01:14:03;2.00;1.00;0.80
49343;PMS5003;35210;41.606;-87.602;2022-10-26T01:16:42;1.00;1.00;0.00
49343;PMS5003;35210;41.606;-87.602;2022-10-26T01:22:40;3.00;2.00;1.00
49343;PMS5003;35210;41.606;-87.602;2022-10-26T01:25:15;2.00;2.00;1.00
49343;PMS5003;35210;41.606;-87.602;2022-10-26T01:28:08;1.00;1.00;1.00
49343;PMS5003;35210;41.606;-87.602;2022-10-26T01:30:47;2.00;1.00;0.00
49343;PMS5003;35210;41.606;-87.602;2022-10-26T01:33:22;1.20;1.20;0.00
49343;PMS5003;35210;41.606;-87.602;2022-10-26T01:36:02;0.80;0.80;0.00
49343;PMS5003;35210;41.606;-87.602;2022-10-26T01:38:43;0.80;0.80;0.00
49343;PMS5003;35210;41.606;-87.602;2022-10-26T01:41:24;2.00;2.00;2.00
49343;PMS5003;35210;41.606;-87.602;2022-10-26T01:43:58;3.00;3.00;1.40
49343;PMS5003;35210;41.606;-87.602;2022-10-26T01:46:33;1.60;1.60;1.00
49343;PMS5003;35210;41.606;-87.602;2022-10-26T01:49:07;1.40;1.40;1.00
49343;PMS5003;35210;41.606;-87.602;2022-10-26T01:51:38;2.00;2.00;1.00
49343;PMS5003;35210;41.606;-87.602;2022-10-26T01:54:09;2.60;2.60;2.00
49343;PMS5003;35210;41.606;-87.602;2022-10-26T01:56:38;3.80;3.00;1.00
49343;PMS5003;35210;41.606;-87.602;2022-10-26T02:02:21;4.00;4.00;3.40
49343;PMS5003;35210;41.606;-87.602;2022-10-26T02:08:18;1.80;1.80;1.00
49343;PMS5003;35210;41.606;-87.602;2022-10-26T02:10:58;3.20;3.20;2.00
49343;PMS5003;35210;41.606;-87.602;2022-10-26T02:13:37;4.00;4.00;3.00
49343;PMS5003;35210;41.606;-87.602;2022-10-26T02:16:17;3.00;3.00;2.20
49343;PMS5003;35210;41.606;-87.602;2022-10-26T02:18:53;3.00;3.00;2.00
49343;PMS5003;35210;41.606;-87.602;2022-10-26T02:21:29;4.80;4.80;3.00
49343;PMS5003;35210;41.606;-87.602;2022-10-26T02:24:04;3.40;3.40;2.40
49343;PMS5003;35210;41.606;-87.602;2022-10-26T02:26:36;3.40;3.40;2.60
49343;PMS5003;35210;41.606;-87.602;2022-10-26T02:29:07;4.60;4.00;2.00
49343;PMS5003;35210;41.606;-87.602;2022-10-26T02:31:40;5.00;4.60;2.20
49343;PMS5003;35210;41.606;-87.602;2022-10-26T02:34:15;3.80;3.40;2.00
49343;PMS5003;35210;41.606;-87.602;2022-10-26T02:36:49;3.20;3.20;2.00
49343;PMS5003;35210;41.606;-87.602;2022-10-26T02:39:19;3.20;3.00;2.00
49343;PMS5003;35210;41.606;-87.602;2022-10-26T02:41:50;3.80;3.80;2.40
49343;PMS5003;35210;41.606;-87.602;2022-10-26T02:44:21;5.00;4.00;3.00
49343;PMS5003;35210;41.606;-87.602;2022-10-26T02:46:53;3.00;3.00;2.40
49343;PMS5003;35210;41.606;-87.602;2022-10-26T02:49:25;2.20;2.20;1.00
49343;PMS5003;35210;41.606;-87.602;2022-10-26T02:51:55;3.60;2.20;1.20
49343;PMS5003;35210;41.606;-87.602;2022-10-26T02:54:34;5.00;3.00;2.00
49343;PMS5003;35210;41.606;-87.602;2022-10-26T02:57:09;1.60;1.60;1.00
49343;PMS5003;35210;41.606;-87.602;2022-10-26T02:59:42;2.00;2.00;1.60
49343;PMS5003;35210;41.606;-87.602;2022-10-26T03:02:13;1.60;1.60;1.00
49343;PMS5003;35210;41.606;-87.602;2022-10-26T03:04:47;2.00;2.00;1.00
49343;PMS5003;35210;41.606;-87.602;2022-10-26T03:07:20;1.80;1.80;1.00
49343;PMS5003;35210;41.606;-87.602;2022-10-26T03:09:49;3.00;3.00;1.00
49343;PMS5003;35210;41.606;-87.602;2022-10-26T03:12:20;1.00;1.00;0.00
49343;PMS5003;35210;41.606;-87.602;2022-10-26T03:14:49;4.60;1.80;1.80
49343;PMS5003;35210;41.606;-87.602;2022-10-26T03:17:18;1.60;1.60;1.00
49343;PMS5003;35210;41.606;-87.602;2022-10-26T03:19:47;1.00;1.00;0.00
49343;PMS5003;35210;41.606;-87.602;2022-10-26T03:22:15;3.20;2.60;1.00
49343;PMS5003;35210;41.606;-87.602;2022-10-26T03:24:43;3.00;3.00;1.20
49343;PMS5003;35210;41.606;-87.602;2022-10-26T03:27:11;3.00;3.00;1.20
49343;PMS5003;35210;41.606;-87.602;2022-10-26T03:29:40;2.00;2.00;1.40
49343;PMS5003;35210;41.606;-87.602;2022-10-26T03:32:08;3.00;3.00;1.60
49343;PMS5003;35210;41.606;-87.602;2022-10-26T03:34:38;2.80;2.80;1.00
49343;PMS5003;35210;41.606;-87.602;2022-10-26T03:37:13;2.20;2.20;1.80
49343;PMS5003;35210;41.606;-87.602;2022-10-26T03:39:42;2.40;2.40;1.60
49343;PMS5003;35210;41.606;-87.602;2022-10-26T03:42:11;2.40;2.40;2.00
49343;PMS5003;35210;41.606;-87.602;2022-10-26T03:44:39;3.00;3.00;2.00
49343;PMS5003;35210;41.606;-87.602;2022-10-26T03:47:08;2.20;2.20;1.60
49343;PMS5003;35210;41.606;-87.602;2022-10-26T03:49:36;3.60;3.60;2.20
49343;PMS5003;35210;41.606;-87.602;2022-10-26T03:52:04;2.00;2.00;1.20
49343;PMS5003;35210;41.606;-87.602;2022-10-26T03:54:34;2.60;2.40;1.00
49343;PMS5003;35210;41.606;-87.602;2022-10-26T03:57:03;4.60;4.60;2.00
49343;PMS5003;35210;41.606;-87.602;2022-10-26T03:59:32;5.80;4.80;3.00
49343;PMS5003;35210;41.606;-87.602;2022-10-26T04:02:01;4.60;4.60;3.00
49343;PMS5003;35210;41.606;-87.602;2022-10-26T04:04:30;4.00;4.00;3.00
49343;PMS5003;35210;41.606;-87.602;2022-10-26T04:06:58;4.40;3.00;1.40
49343;PMS5003;35210;41.606;-87.602;2022-10-26T04:09:27;4.00;4.00;2.60
49343;PMS5003;35210;41.606;-87.602;2022-10-26T04:11:58;4.00;4.00;2.80
49343;PMS5003;35210;41.606;-87.602;2022-10-26T04:14:26;6.40;5.00;3.40
49343;PMS5003;35210;41.606;-87.602;2022-10-26T04:16:54;5.60;5.20;2.80
49343;PMS5003;35210;41.606;-87.602;2022-10-26T04:19:22;7.80;6.60;4.00
49343;PMS5003;35210;41.606;-87.602;2022-10-26T04:21:51;5.60;5.60;3.00
49343;PMS5003;35210;41.606;-87.602;2022-10-26T04:24:19;4.40;4.00;2.20
49343;PMS5003;35210;41.606;-87.602;2022-10-26T04:26:49;4.60;4.60;3.00
49343;PMS5003;35210;41.606;-87.602;2022-10-26T04:29:18;5.00;5.00;2.00
49343;PMS5003;35210;41.606;-87.602;2022-10-26T04:31:47;4.00;3.20;3.00
49343;PMS5003;35210;41.606;-87.602;2022-10-26T04:34:17;5.00;4.00;3.00
49343;PMS5003;35210;41.606;-87.602;2022-10-26T04:36:47;5.20;4.00;3.00
49343;PMS5003;35210;41.606;-87.602;2022-10-26T04:39:15;4.00;3.00;2.00
49343;PMS5003;35210;41.606;-87.602;2022-10-26T04:41:44;4.40;3.80;2.20
49343;PMS5003;35210;41.606;-87.602;2022-10-26T04:44:13;5.00;4.00;2.40
49343;PMS5003;35210;41.606;-87.602;2022-10-26T04:46:44;2.00;2.00;1.00
49343;PMS5003;35210;41.606;-87.602;2022-10-26T04:49:12;4.80;3.80;1.80
49343;PMS5003;35210;41.606;-87.602;2022-10-26T04:51:42;3.00;3.00;2.00
49343;PMS5003;35210;41.606;-87.602;2022-10-26T04:54:11;3.40;3.40;2.00
49343;PMS5003;35210;41.606;-87.602;2022-10-26T04:56:39;5.60;3.00;1.60
49343;PMS5003;35210;41.606;-87.602;2022-10-26T04:59:08;3.20;3.20;2.00
49343;PMS5003;35210;41.606;-87.602;2022-10-26T05:01:36;2.00;2.00;2.00
49343;PMS5003;35210;41.606;-87.602;2022-10-26T05:04:06;1.40;1.20;0.80
49343;PMS5003;35210;41.606;-87.602;2022-10-26T05:06:34;1.60;1.60;1.00
49343;PMS5003;35210;41.606;-87.602;2022-10-26T05:09:02;3.00;3.00;1.20
49343;PMS5003;35210;41.606;-87.602;2022-10-26T05:11:30;3.00;2.00;1.00
49343;PMS5003;35210;41.606;-87.602;2022-10-26T05:13:58;1.60;1.60;1.00
49343;PMS5003;35210;41.606;-87.602;2022-10-26T05:16:27;2.60;2.00;1.00
49343;PMS5003;35210;41.606;-87.602;2022-10-26T05:18:55;3.00;3.00;1.00
49343;PMS5003;35210;41.606;-87.602;2022-10-26T05:21:24;2.00;2.00;0.40
49343;PMS5003;35210;41.606;-87.602;2022-10-26T05:23:53;2.60;2.60;2.00
49343;PMS5003;35210;41.606;-87.602;2022-10-26T05:26:21;4.60;3.60;1.80
49343;PMS5003;35210;41.606;-87.602;2022-10-26T05:28:50;2.40;2.40;2.00
49343;PMS5003;35210;41.606;-87.602;2022-10-26T05:31:19;4.00;2.80;1.20
49343;PMS5003;35210;41.606;-87.602;2022-10-26T05:33:48;3.00;3.00;2.00
49343;PMS5003;35210;41.606;-87.602;2022-10-26T05:36:16;3.00;3.00;2.00
49343;PMS5003;35210;41.606;-87.602;2022-10-26T05:38:46;4.40;4.40;3.00
49343;PMS5003;35210;41.606;-87.602;2022-10-26T05:41:14;3.00;3.00;2.00
49343;PMS5003;35210;41.606;-87.602;2022-10-26T05:43:42;4.60;4.60;2.00
49343;PMS5003;35210;41.606;-87.602;2022-10-26T05:46:13;3.60;3.00;2.20
49343;PMS5003;35210;41.606;-87.602;2022-10-26T05:48:41;3.00;3.00;2.00
49343;PMS5003;35210;41.606;-87.602;2022-10-26T05:51:09;2.00;2.00;1.00
49343;PMS5003;35210;41.606;-87.602;2022-10-26T05:53:37;3.80;3.80;2.00
49343;PMS5003;35210;41.606;-87.602;2022-10-26T05:56:11;4.40;2.80;2.00
49343;PMS5003;35210;41.606;-87.602;2022-10-26T05:58:45;3.00;3.00;2.00
49343;PMS5003;35210;41.606;-87.602;2022-10-26T06:01:17;2.40;2.40;1.00
49343;PMS5003;35210;41.606;-87.602;2022-10-26T06:03:58;3.00;3.00;2.00
49343;PMS5003;35210;41.606;-87.602;2022-10-26T06:06:36;3.20;3.20;2.00
49343;PMS5003;35210;41.606;-87.602;2022-10-26T06:09:08;2.00;2.00;1.00
49343;PMS5003;35210;41.606;-87.602;2022-10-26T06:11:42;2.40;2.40;1.00
49343;PMS5003;35210;41.606;-87.602;2022-10-26T06:14:18;2.80;2.80;2.00
49343;PMS5003;35210;41.606;-87.602;2022-10-26T06:16:55;6.40;2.40;1.80
49343;PMS5003;35210;41.606;-87.602;2022-10-26T06:19:42;3.60;2.60;2.00
49343;PMS5003;35210;41.606;-87.602;2022-10-26T06:22:27;3.80;2.40;2.00
49343;PMS5003;35210;41.606;-87.602;2022-10-26T06:25:08;4.00;2.00;1.60
49343;PMS5003;35210;41.606;-87.602;2022-10-26T06:27:52;2.20;2.20;1.00
49343;PMS5003;35210;41.606;-87.602;2022-10-26T06:30:31;2.00;2.00;2.00
49343;PMS5003;35210;41.606;-87.602;2022-10-26T06:33:00;2.00;2.00;1.00
49343;PMS5003;35210;41.606;-87.602;2022-10-26T06:35:31;2.00;2.00;2.00
49343;PMS5003;35210;41.606;-87.602;2022-10-26T06:38:08;1.60;1.60;1.00
49343;PMS5003;35210;41.606;-87.602;2022-10-26T06:40:42;1.80;1.80;1.00
49343;PMS5003;35210;41.606;-87.602;2022-10-26T06:43:19;1.20;0.60;0.40
49343;PMS5003;35210;41.606;-87.602;2022-10-26T06:45:55;1.60;1.60;1.00
49343;PMS5003;35210;41.606;-87.602;2022-10-26T06:48:42;2.20;2.20;1.40
49343;PMS5003;35210;41.606;-87.602;2022-10-26T06:51:21;2.00;2.00;1.00
49343;PMS5003;35210;41.606;-87.602;2022-10-26T06:53:54;2.00;2.00;1.00
49343;PMS5003;35210;41.606;-87.602;2022-10-26T06:56:26;1.00;1.00;1.00
49343;PMS5003;35210;41.606;-87.602;2022-10-26T06:58:58;2.00;2.00;1.00
49343;PMS5003;35210;41.606;-87.602;2022-10-26T07:01:34;1.00;1.00;0.20
49343;PMS5003;35210;41.606;-87.602;2022-10-26T07:04:03;2.00;2.00;1.00
49343;PMS5003;35210;41.606;-87.602;2022-10-26T07:06:31;3.00;1.40;0.80
49343;PMS5003;35210;41.606;-87.602;2022-10-26T07:08:59;1.40;1.40;1.00
49343;PMS5003;35210;41.606;-87.602;2022-10-26T07:11:27;2.40;2.40;1.00
49343;PMS5003;35210;41.606;-87.602;2022-10-26T07:13:57;1.00;1.00;1.00
49343;PMS5003;35210;41.606;-87.602;2022-10-26T07:16:26;3.00;3.00;1.00
49343;PMS5003;35210;41.606;-87.602;2022-10-26T07:18:55;1.60;1.60;1.00
49343;PMS5003;35210;41.606;-87.602;2022-10-26T07:21:24;0.80;0.00;0.00
49343;PMS5003;35210;41.606;-87.602;2022-10-26T07:23:53;1.80;1.80;1.00
49343;PMS5003;35210;41.606;-87.602;2022-10-26T07:26:22;2.00;2.00;1.00
49343;PMS5003;35210;41.606;-87.602;2022-10-26T07:28:51;2.00;2.00;1.00
49343;PMS5003;35210;41.606;-87.602;2022-10-26T07:31:21;1.20;1.20;1.00
49343;PMS5003;35210;41.606;-87.602;2022-10-26T07:33:52;1.20;1.20;1.00
49343;PMS5003;35210;41.606;-87.602;2022-10-26T07:36:20;0.40;0.40;0.00
49343;PMS5003;35210;41.606;-87.602;2022-10-26T07:38:50;0.80;0.80;0.00
49343;PMS5003;35210;41.606;-87.602;2022-10-26T07:41:19;1.00;1.00;0.00
49343;PMS5003;35210;41.606;-87.602;2022-10-26T07:43:47;1.00;0.40;0.00
49343;PMS5003;35210;41.606;-87.602;2022-10-26T07:46:16;1.00;1.00;0.40
49343;PMS5003;35210;41.606;-87.602;2022-10-26T07:48:45;1.40;1.40;1.00
49343;PMS5003;35210;41.606;-87.602;2022-10-26T07:51:14;2.00;2.00;1.00
49343;PMS5003;35210;41.606;-87.602;2022-10-26T07:53:42;1.00;1.00;1.00
49343;PMS5003;35210;41.606;-87.602;2022-10-26T07:56:11;2.60;1.20;0.80
49343;PMS5003;35210;41.606;-87.602;2022-10-26T07:58:40;1.60;1.60;1.00
49343;PMS5003;35210;41.606;-87.602;2022-10-26T08:01:08;1.00;1.00;1.00
49343;PMS5003;35210;41.606;-87.602;2022-10-26T08:03:39;1.00;1.00;1.00
49343;PMS5003;35210;41.606;-87.602;2022-10-26T08:06:10;1.00;1.00;0.00
49343;PMS5003;35210;41.606;-87.602;2022-10-26T08:08:40;1.00;1.00;0.00
49343;PMS5003;35210;41.606;-87.602;2022-10-26T08:11:11;1.40;1.40;1.00
49343;PMS5003;35210;41.606;-87.602;2022-10-26T08:13:39;1.20;1.20;1.00
49343;PMS5003;35210;41.606;-87.602;2022-10-26T08:16:07;2.00;2.00;1.00
49343;PMS5003;35210;41.606;-87.602;2022-10-26T08:18:36;0.00;0.00;0.00
49343;PMS5003;35210;41.606;-87.602;2022-10-26T08:21:05;1.00;1.00;0.60
49343;PMS5003;35210;41.606;-87.602;2022-10-26T08:23:36;1.00;1.00;0.00
49343;PMS5003;35210;41.606;-87.602;2022-10-26T08:26:04;1.00;1.00;0.20
49343;PMS5003;35210;41.606;-87.602;2022-10-26T08:28:35;1.00;1.00;0.80
49343;PMS5003;35210;41.606;-87.602;2022-10-26T08:31:04;1.20;1.20;1.00
49343;PMS5003;35210;41.606;-87.602;2022-10-26T08:33:33;1.20;1.20;0.00
49343;PMS5003;35210;41.606;-87.602;2022-10-26T08:36:03;1.80;1.80;1.00
49343;PMS5003;35210;41.606;-87.602;2022-10-26T08:38:31;1.00;1.00;0.00
49343;PMS5003;35210;41.606;-87.602;2022-10-26T08:41:06;2.00;1.00;1.00
49343;PMS5003;35210;41.606;-87.602;2022-10-26T08:43:36;1.20;1.00;0.00
49343;PMS5003;35210;41.606;-87.602;2022-10-26T08:46:11;1.20;1.20;1.00
49343;PMS5003;35210;41.606;-87.602;2022-10-26T08:48:43;1.00;1.00;0.20
49343;PMS5003;35210;41.606;-87.602;2022-10-26T08:51:16;0.40;0.40;0.00
49343;PMS5003;35210;41.606;-87.602;2022-10-26T08:53:47;0.00;0.00;0.00
49343;PMS5003;35210;41.606;-87.602;2022-10-26T08:56:20;1.00;1.00;0.00
49343;PMS5003;35210;41.606;-87.602;2022-10-26T08:58:53;1.20;1.20;0.60
49343;PMS5003;35210;41.606;-87.602;2022-10-26T09:01:24;0.00;0.00;0.00
49343;PMS5003;35210;41.606;-87.602;2022-10-26T09:03:53;0.00;0.00;0.00
49343;PMS5003;35210;41.606;-87.602;2022-10-26T09:06:24;1.00;0.80;0.20
49343;PMS5003;35210;41.606;-87.602;2022-10-26T09:09:02;0.00;0.00;0.00
49343;PMS5003;35210;41.606;-87.602;2022-10-26T09:11:42;0.00;0.00;0.00
49343;PMS5003;35210;41.606;-87.602;2022-10-26T09:14:22;0.40;0.40;0.00
49343;PMS5003;35210;41.606;-87.602;2022-10-26T09:17:07;0.80;0.80;0.00
49343;PMS5003;35210;41.606;-87.602;2022-10-26T09:19:55;1.00;1.00;0.00
49343;PMS5003;35210;41.606;-87.602;2022-10-26T09:22:37;1.00;1.00;0.00
49343;PMS5003;35210;41.606;-87.602;2022-10-26T09:25:15;0.00;0.00;0.00
49343;PMS5003;35210;41.606;-87.602;2022-10-26T09:27:48;1.80;1.00;0.00
49343;PMS5003;35210;41.606;-87.602;2022-10-26T09:30:21;1.00;1.00;0.00
49343;PMS5003;35210;41.606;-87.602;2022-10-26T09:32:49;0.00;0.00;0.00
49343;PMS5003;35210;41.606;-87.602;2022-10-26T09:35:22;1.00;1.00;1.00
49343;PMS5003;35210;41.606;-87.602;2022-10-26T09:37:54;1.40;1.40;1.00
49343;PMS5003;35210;41.606;-87.602;2022-10-26T09:40:26;1.40;1.00;0.20
49343;PMS5003;35210;41.606;-87.602;2022-10-26T09:43:03;1.40;1.40;1.00
49343;PMS5003;35210;41.606;-87.602;2022-10-26T09:45:37;1.00;1.00;0.00
49343;PMS5003;35210;41.606;-87.602;2022-10-26T09:48:12;2.00;2.00;1.00
49343;PMS5003;35210;41.606;-87.602;2022-10-26T09:50:47;0.20;0.20;0.00
49343;PMS5003;35210;41.606;-87.602;2022-10-26T09:53:17;2.00;2.00;1.00
49343;PMS5003;35210;41.606;-87.602;2022-10-26T09:55:45;2.00;2.00;2.00
49343;PMS5003;35210;41.606;-87.602;2022-10-26T09:58:20;3.00;3.00;2.00
49343;PMS5003;35210;41.606;-87.602;2022-10-26T10:00:54;1.40;1.40;1.00
49343;PMS5003;35210;41.606;-87.602;2022-10-26T10:03:25;2.00;2.00;1.00
49343;PMS5003;35210;41.606;-87.602;2022-10-26T10:06:09;1.60;1.60;1.00
49343;PMS5003;35210;41.606;-87.602;2022-10-26T10:08:42;1.00;1.00;1.00
49343;PMS5003;35210;41.606;-87.602;2022-10-26T10:11:35;2.00;2.00;1.00
49343;PMS5003;35210;41.606;-87.602;2022-10-26T10:14:07;1.80;1.80;1.40
49343;PMS5003;35210;41.606;-87.602;2022-10-26T10:16:41;2.00;2.00;1.40
49343;PMS5003;35210;41.606;-87.602;2022-10-26T10:19:21;2.00;2.00;1.00
49343;PMS5003;35210;41.606;-87.602;2022-10-26T10:21:53;3.00;3.00;2.00
49343;PMS5003;35210;41.606;-87.602;2022-10-26T10:24:25;2.80;2.80;2.00
49343;PMS5003;35210;41.606;-87.602;2022-10-26T10:26:55;3.80;3.80;2.00
49343;PMS5003;35210;41.606;-87.602;2022-10-26T10:29:30;2.00;2.00;0.80
49343;PMS5003;35210;41.606;-87.602;2022-10-26T10:32:01;2.20;2.20;2.00
49343;PMS5003;35210;41.606;-87.602;2022-10-26T10:34:30;2.00;2.00;1.00
49343;PMS5003;35210;41.606;-87.602;2022-10-26T10:37:00;2.60;2.60;1.40
49343;PMS5003;35210;41.606;-87.602;2022-10-26T10:39:34;2.00;2.00;1.40
49343;PMS5003;35210;41.606;-87.602;2022-10-26T10:42:04;3.60;3.60;2.00
49343;PMS5003;35210;41.606;-87.602;2022-10-26T10:44:43;4.00;3.00;2.00
49343;PMS5003;35210;41.606;-87.602;2022-10-26T10:47:21;4.20;4.20;2.00
49343;PMS5003;35210;41.606;-87.602;2022-10-26T10:49:53;4.60;3.00;2.00
49343;PMS5003;35210;41.606;-87.602;2022-10-26T10:52:25;4.20;4.20;2.80
49343;PMS5003;35210;41.606;-87.602;2022-10-26T10:54:59;3.40;3.40;2.00
49343;PMS5003;35210;41.606;-87.602;2022-10-26T10:57:47;6.20;4.80;2.80
49343;PMS5003;35210;41.606;-87.602;2022-10-26T11:00:27;3.20;3.20;1.60
49343;PMS5003;35210;41.606;-87.602;2022-10-26T11:03:08;2.40;2.40;1.20
49343;PMS5003;35210;41.606;-87.602;2022-10-26T11:06:05;2.40;2.40;1.60
49343;PMS5003;35210;41.606;-87.602;2022-10-26T11:08:42;3.00;3.00;2.00
49343;PMS5003;35210;41.606;-87.602;2022-10-26T11:11:17;2.20;2.00;2.00
49343;PMS5003;35210;41.606;-87.602;2022-10-26T11:13:51;3.00;3.00;2.00
49343;PMS5003;35210;41.606;-87.602;2022-10-26T11:16:26;3.00;3.00;2.00
49343;PMS5003;35210;41.606;-87.602;2022-10-26T11:18:59;2.40;2.40;2.00
49343;PMS5003;35210;41.606;-87.602;2022-10-26T11:21:35;2.00;2.00;2.00
49343;PMS5003;35210;41.606;-87.602;2022-10-26T11:24:05;3.00;3.00;1.80
49343;PMS5003;35210;41.606;-87.602;2022-10-26T11:26:42;3.00;3.00;2.00
49343;PMS5003;35210;41.606;-87.602;2022-10-26T11:29:25;2.80;2.20;1.00
49343;PMS5003;35210;41.606;-87.602;2022-10-26T11:32:02;3.80;3.80;2.00
49343;PMS5003;35210;41.606;-87.602;2022-10-26T11:34:40;2.40;2.40;1.80
49343;PMS5003;35210;41.606;-87.602;2022-10-26T11:37:24;2.20;2.00;1.00
49343;PMS5003;35210;41.606;-87.602;2022-10-26T11:40:03;3.80;3.00;1.60
49343;PMS5003;35210;41.606;-87.602;2022-10-26T11:42:43;3.00;2.40;1.20
49343;PMS5003;35210;41.606;-87.602;2022-10-26T11:45:17;3.00;3.00;2.00
49343;PMS5003;35210;41.606;-87.602;2022-10-26T11:47:52;2.60;2.60;2.00
49343;PMS5003;35210;41.606;-87.602;2022-10-26T11:50:26;5.20;2.40;1.60
49343;PMS5003;35210;41.606;-87.602;2022-10-26T11:52:59;3.60;3.00;1.80
49343;PMS5003;35210;41.606;-87.602;2022-10-26T11:55:34;2.80;2.60;2.00
49343;PMS5003;35210;41.606;-87.602;2022-10-26T11:58:04;3.00;3.00;1.00
49343;PMS5003;35210;41.606;-87.602;2022-10-26T12:00:32;2.00;2.00;1.40
49343;PMS5003;35210;41.606;-87.602;2022-10-26T12:03:05;3.40;2.00;1.00
49343;PMS5003;35210;41.606;-87.602;2022-10-26T12:05:41;3.00;2.00;1.80
49343;PMS5003;35210;41.606;-87.602;2022-10-26T12:08:15;3.00;2.60;2.00
49343;PMS5003;35210;41.606;-87.602;2022-10-26T12:10:51;1.20;0.00;0.00
49343;PMS5003;35210;41.606;-87.602;2022-10-26T12:13:29;2.00;2.00;1.00
49343;PMS5003;35210;41.606;-87.602;2022-10-26T12:16:06;2.40;2.40;2.00
49343;PMS5003;35210;41.606;-87.602;2022-10-26T12:18:44;2.00;2.00;1.00
49343;PMS5003;35210;41.606;-87.602;2022-10-26T12:21:16;1.60;1.60;1.00
49343;PMS5003;35210;41.606;-87.602;2022-10-26T12:23:55;2.80;2.80;1.80
49343;PMS5003;35210;41.606;-87.602;2022-10-26T12:29:27;1.20;1.20;1.00
49343;PMS5003;35210;41.606;-87.602;2022-10-26T12:32:07;2.20;2.20;1.20
49343;PMS5003;35210;41.606;-87.602;2022-10-26T12:35:35;2.00;2.00;1.00
49343;PMS5003;35210;41.606;-87.602;2022-10-26T12:41:25;2.20;2.20;1.00
49343;PMS5003;35210;41.606;-87.602;2022-10-26T12:43:54;1.80;1.80;1.00
49343;PMS5003;35210;41.606;-87.602;2022-10-26T12:55:20;2.80;2.20;1.00
49343;PMS5003;35210;41.606;-87.602;2022-10-26T13:01:18;2.60;2.60;1.00
49343;PMS5003;35210;41.606;-87.602;2022-10-26T13:07:15;3.00;3.00;1.00
49343;PMS5003;35210;41.606;-87.602;2022-10-26T13:09:51;2.60;2.60;1.80
49343;PMS5003;35210;41.606;-87.602;2022-10-26T13:12:24;3.40;2.00;1.20
49343;PMS5003;35210;41.606;-87.602;2022-10-26T13:14:57;4.00;2.80;1.00
49343;PMS5003;35210;41.606;-87.602;2022-10-26T13:17:30;1.80;1.80;1.00
49343;PMS5003;35210;41.606;-87.602;2022-10-26T13:19:59;3.00;3.00;2.00
49343;PMS5003;35210;41.606;-87.602;2022-10-26T13:22:29;2.80;2.80;1.60
49343;PMS5003;35210;41.606;-87.602;2022-10-26T13:25:00;3.00;3.00;1.00
49343;PMS5003;35210;41.606;-87.602;2022-10-26T13:27:39;2.00;2.00;1.20
49343;PMS5003;35210;41.606;-87.602;2022-10-26T13:33:15;3.00;3.00;1.00
49343;PMS5003;35210;41.606;-87.602;2022-10-26T13:35:48;3.40;3.00;1.00
49343;PMS5003;35210;41.606;-87.602;2022-10-26T13:38:21;2.40;2.40;1.00
49343;PMS5003;35210;41.606;-87.602;2022-10-26T13:40:58;2.00;2.00;1.00
49343;PMS5003;35210;41.606;-87.602;2022-10-26T13:43:33;4.60;3.00;2.00
49343;PMS5003;35210;41.606;-87.602;2022-10-26T13:46:03;2.80;2.80;1.20
49343;PMS5003;35210;41.606;-87.602;2022-10-26T13:48:36;2.40;2.40;1.00
49343;PMS5003;35210;41.606;-87.602;2022-10-26T13:51:10;5.60;2.60;2.00
49343;PMS5003;35210;41.606;-87.602;2022-10-26T13:53:46;3.40;3.40;2.00
49343;PMS5003;35210;41.606;-87.602;2022-10-26T13:56:26;3.40;3.00;1.60
49343;PMS5003;35210;41.606;-87.602;2022-10-26T13:58:59;3.80;3.80;2.00
49343;PMS5003;35210;41.606;-87.602;2022-10-26T14:01:30;3.00;3.00;2.00
49343;PMS5003;35210;41.606;-87.602;2022-10-26T14:03:59;2.00;2.00;1.00
49343;PMS5003;35210;41.606;-87.602;2022-10-26T14:06:41;3.20;3.00;2.20
49343;PMS5003;35210;41.606;-87.602;2022-10-26T14:09:15;3.60;3.00;1.20
49343;PMS5003;35210;41.606;-87.602;2022-10-26T14:11:47;3.80;3.00;1.60
49343;PMS5003;35210;41.606;-87.602;2022-10-26T14:14:20;4.20;3.20;2.00
49343;PMS5003;35210;41.606;-87.602;2022-10-26T14:16:51;3.00;3.00;2.00
49343;PMS5003;35210;41.606;-87.602;2022-10-26T14:19:23;2.60;2.00;2.00
49343;PMS5003;35210;41.606;-87.602;2022-10-26T14:21:53;3.20;2.60;1.60
49343;PMS5003;35210;41.606;-87.602;2022-10-26T14:24:23;5.00;2.80;2.00
49343;PMS5003;35210;41.606;-87.602;2022-10-26T14:26:57;3.40;3.40;2.00
49343;PMS5003;35210;41.606;-87.602;2022-10-26T14:29:26;3.80;3.80;2.00
49343;PMS5003;35210;41.606;-87.602;2022-10-26T14:31:59;2.60;2.60;1.00
49343;PMS5003;35210;41.606;-87.602;2022-10-26T14:34:45;3.80;3.80;1.80
49343;PMS5003;35210;41.606;-87.602;2022-10-26T14:37:16;2.00;2.00;1.80
49343;PMS5003;35210;41.606;-87.602;2022-10-26T14:39:51;3.00;3.00;2.00
49343;PMS5003;35210;41.606;-87.602;2022-10-26T14:42:23;2.00;2.00;1.40
49343;PMS5003;35210;41.606;-87.602;2022-10-26T14:44:54;5.00;3.00;2.00
49343;PMS5003;35210;41.606;-87.602;2022-10-26T14:47:24;0.80;0.00;0.00
49343;PMS5003;35210;41.606;-87.602;2022-10-26T14:49:54;3.00;2.60;1.80
49343;PMS5003;35210;41.606;-87.602;2022-10-26T14:52:24;2.60;1.80;0.00
49343;PMS5003;35210;41.606;-87.602;2022-10-26T14:54:56;2.60;2.60;2.00
49343;PMS5003;35210;41.606;-87.602;2022-10-26T14:57:31;3.20;3.20;2.00
49343;PMS5003;35210;41.606;-87.602;2022-10-26T15:00:03;2.60;2.60;1.40
49343;PMS5003;35210;41.606;-87.602;2022-10-26T15:02:39;2.00;2.00;1.20